Time;durP1;ratioP1;P1;durP2;ratioP2;P2;SDS_P1;SDS_P2;PMS_P1;PMS_P2;Temp;Humidity;BMP_temperature;BMP_pressure;BME280_temperature;BME280_humidity;BME280_pressure;Samples;Min_cycle;Max_cycle;Signal;HPM_P1;HPM_P2
2022/08/18 00:02:24;;;;;;;21.45;17.90;;;21.30;99.90;;;;;;5050232;28;20033;-59
2022/08/18 00:04:51;;;;;;;26.88;17.75;;;21.20;99.90;;;;;;5050142;28;20037;-59
2022/08/18 00:07:30;;;;;;;24.42;17.98;;;21.40;99.90;;;;;;5050315;28;20028;-60
2022/08/18 00:09:57;;;;;;;22.98;18.05;;;21.40;99.90;;;;;;5050049;28;20037;-59
2022/08/18 00:12:38;;;;;;;25.80;18.73;;;21.50;99.90;;;;;;5050318;28;20366;-60
2022/08/18 00:15:11;;;;;;;25.33;18.65;;;21.60;99.90;;;;;;5050225;28;20025;-60
2022/08/18 00:17:37;;;;;;;23.23;17.80;;;21.50;99.90;;;;;;5050231;28;20148;-58
2022/08/18 00:20:10;;;;;;;26.92;18.83;;;21.50;99.90;;;;;;5050208;28;20029;-59
2022/08/18 00:22:36;;;;;;;22.98;17.00;;;21.40;99.90;;;;;;5050181;28;20144;-59
2022/08/18 00:25:01;;;;;;;33.05;19.75;;;21.20;99.90;;;;;;5049875;28;20756;-59
2022/08/18 00:27:29;;;;;;;22.52;17.45;;;21.10;99.90;;;;;;5049758;28;20422;-59
2022/08/18 00:30:01;;;;;;;25.80;19.52;;;21.00;99.90;;;;;;5048541;28;20407;-59
2022/08/18 00:32:37;;;;;;;23.45;19.10;;;20.90;99.90;;;;;;5050101;28;20032;-60
2022/08/18 00:35:08;;;;;;;51.03;21.50;;;20.80;99.90;;;;;;5049778;28;20355;-59
2022/08/18 00:37:35;;;;;;;69.18;23.52;;;20.80;99.90;;;;;;5048298;28;20495;-59
2022/08/18 00:40:02;;;;;;;28.27;20.23;;;20.70;99.90;;;;;;5049516;28;20053;-59
2022/08/18 00:42:28;;;;;;;28.88;20.60;;;20.60;99.90;;;;;;5049265;28;20029;-59
2022/08/18 00:44:56;;;;;;;25.33;20.02;;;20.70;99.90;;;;;;5049796;28;20029;-59
2022/08/18 00:47:21;;;;;;;;;;;20.60;99.90;;;;;;5050166;28;20036;-59
2022/08/18 00:49:51;;;;;;;28.35;19.23;;;20.70;99.90;;;;;;5049309;28;19967;-60
2022/08/18 00:52:18;;;;;;;24.48;18.65;;;20.80;99.90;;;;;;5049689;28;20079;-59
2022/08/18 00:54:45;;;;;;;;;;;20.80;99.90;;;;;;5049870;28;20730;-59
2022/08/18 00:57:12;;;;;;;28.13;18.98;;;20.80;99.90;;;;;;5048921;28;19923;-59
2022/08/18 01:00:02;;;;;;;30.17;20.05;;;20.80;99.90;;;;;;5049202;28;20029;-60
2022/08/18 01:02:34;;;;;;;30.58;17.80;;;20.90;99.90;;;;;;5047867;28;20116;-59
2022/08/18 01:05:07;;;;;;;28.23;20.58;;;21.00;99.90;;;;;;5049358;28;20091;-60
2022/08/18 01:07:43;;;;;;;25.88;18.98;;;21.00;99.90;;;;;;5049245;28;20032;-59
2022/08/18 01:10:13;;;;;;;21.92;19.40;;;20.80;99.90;;;;;;5049398;28;20167;-60
2022/08/18 01:12:39;;;;;;;25.77;18.45;;;20.90;99.90;;;;;;5048977;28;20540;-59
2022/08/18 01:15:05;;;;;;;28.65;19.15;;;21.00;99.90;;;;;;5048902;28;20048;-59
2022/08/18 01:23:14;;;;;;;24.88;19.58;;;20.60;99.90;;;;;;5049010;28;20075;-59
2022/08/18 01:25:59;;;;;;;26.98;20.77;;;20.40;99.90;;;;;;5049133;28;20021;-60
2022/08/18 01:28:37;;;;;;;25.35;21.55;;;20.30;99.90;;;;;;5037738;28;20029;-59
2022/08/18 01:31:03;;;;;;;;;;;20.20;99.90;;;;;;5029342;28;20029;-60
2022/08/18 01:33:42;;;;;;;32.13;23.20;;;20.20;99.90;;;;;;5028874;28;19944;-60
2022/08/18 01:36:16;;;;;;;30.73;23.08;;;20.20;99.90;;;;;;5028694;28;20041;-60
2022/08/18 01:38:44;;;;;;;28.90;21.73;;;20.10;99.90;;;;;;5028348;28;20542;-60
2022/08/18 01:41:09;;;;;;;;;;;20.10;99.90;;;;;;5028918;28;20091;-60
2022/08/18 01:43:36;;;;;;;25.92;22.63;;;20.10;99.90;;;;;;5028966;28;19909;-59
2022/08/18 01:46:03;;;;;;;25.73;21.58;;;20.00;99.90;;;;;;5028939;28;20102;-59
2022/08/18 01:48:33;;;;;;;27.65;23.25;;;20.00;99.90;;;;;;5028848;28;20033;-60
2022/08/18 01:51:05;;;;;;;25.92;21.60;;;19.90;99.90;;;;;;5028584;28;20075;-59
2022/08/18 01:53:31;;;;;;;30.55;24.23;;;19.90;99.90;;;;;;5027619;28;20060;-59
2022/08/18 01:55:56;;;;;;;28.63;23.98;;;19.90;99.90;;;;;;5028188;28;20544;-59
2022/08/18 01:58:26;;;;;;;32.75;24.10;;;19.90;99.90;;;;;;5028010;28;20030;-60
2022/08/18 02:00:57;;;;;;;35.05;26.38;;;19.90;99.90;;;;;;5028346;28;20029;-59
2022/08/18 02:03:27;;;;;;;35.45;24.73;;;20.00;99.90;;;;;;5028303;28;20176;-59
2022/08/18 02:05:59;;;;;;;29.35;23.95;;;20.00;99.90;;;;;;5028178;28;20091;-60
2022/08/18 02:08:25;;;;;;;37.08;27.20;;;19.90;99.90;;;;;;5027752;28;20531;-59
2022/08/18 02:10:51;;;;;;;30.30;25.48;;;19.90;99.90;;;;;;5028474;28;20044;-59
2022/08/18 02:13:17;;;;;;;35.83;26.40;;;19.80;99.90;;;;;;5028502;28;20021;-59
2022/08/18 02:15:43;;;;;;;32.15;24.83;;;19.90;99.90;;;;;;5027871;28;20044;-59
2022/08/18 02:18:21;;;;;;;33.72;26.48;;;20.00;99.90;;;;;;5027994;28;20026;-59
2022/08/18 02:20:47;;;;;;;34.05;26.33;;;20.00;99.90;;;;;;5027763;28;20026;-60
2022/08/18 02:23:13;;;;;;;37.40;26.50;;;20.00;99.90;;;;;;5028127;28;20029;-59
2022/08/18 02:25:41;;;;;;;32.42;26.73;;;20.00;99.90;;;;;;5028245;28;20037;-60
2022/08/18 02:28:07;;;;;;;33.88;25.75;;;20.00;99.90;;;;;;5028115;28;20112;-59
2022/08/18 02:30:36;;;;;;;32.53;25.75;;;20.00;99.90;;;;;;5028054;28;20030;-59
2022/08/18 02:33:03;;;;;;;33.53;24.70;;;19.90;99.90;;;;;;5027996;28;20022;-59
2022/08/18 02:35:29;;;;;;;36.28;27.17;;;19.90;99.90;;;;;;5027876;28;20030;-59
2022/08/18 02:37:58;;;;;;;38.85;26.05;;;19.90;99.90;;;;;;5027796;28;20546;-60
2022/08/18 02:40:24;;;;;;;34.60;26.38;;;20.00;99.90;;;;;;5028026;28;20056;-59
2022/08/18 02:42:51;;;;;;;35.10;25.85;;;20.00;99.90;;;;;;5028219;28;20034;-59
2022/08/18 02:45:17;;;;;;;;;;;20.00;99.90;;;;;;5028194;28;20794;-59
2022/08/18 02:47:43;;;;;;;29.30;23.95;;;20.10;99.90;;;;;;5028204;28;19905;-59
2022/08/18 02:50:10;;;;;;;28.02;23.60;;;20.10;99.90;;;;;;5027909;28;20522;-59
2022/08/18 02:52:35;;;;;;;36.07;25.57;;;20.10;99.90;;;;;;5029711;28;20112;-60
2022/08/18 02:55:01;;;;;;;29.08;23.92;;;20.20;99.90;;;;;;5031581;28;20359;-60
2022/08/18 02:57:28;;;;;;;29.23;24.05;;;20.20;99.90;;;;;;5031669;28;20044;-59
2022/08/18 02:59:54;;;;;;;30.30;23.67;;;20.30;99.90;;;;;;5031439;28;20029;-60
2022/08/18 03:02:20;;;;;;;32.17;23.52;;;20.20;99.90;;;;;;5031485;28;20116;-59
2022/08/18 03:04:46;;;;;;;29.70;23.05;;;20.20;99.90;;;;;;5031984;28;20108;-60
2022/08/18 03:07:13;;;;;;;29.45;24.38;;;20.20;99.90;;;;;;5031610;28;20475;-60
2022/08/18 03:09:40;;;;;;;31.42;25.38;;;20.10;99.90;;;;;;5031498;28;20029;-60
2022/08/18 03:12:07;;;;;;;33.80;25.92;;;20.00;99.90;;;;;;5031628;28;20426;-60
2022/08/18 03:14:34;;;;;;;;;;;19.90;99.90;;;;;;5031768;28;20037;-60
2022/08/18 03:17:07;;;;;;;32.05;25.00;;;20.00;99.90;;;;;;5031283;28;20015;-60
2022/08/18 03:19:33;;;;;;;28.35;23.40;;;20.00;99.90;;;;;;5031106;28;20171;-60
2022/08/18 03:21:59;;;;;;;36.10;26.10;;;20.00;99.90;;;;;;5031167;28;20108;-60
2022/08/18 03:24:27;;;;;;;33.92;24.20;;;19.80;99.90;;;;;;5031203;28;20051;-60
2022/08/18 03:26:55;;;;;;;29.35;23.27;;;19.80;99.90;;;;;;5030941;28;20034;-59
2022/08/18 03:29:21;;;;;;;28.92;22.85;;;19.90;99.90;;;;;;5031934;28;20145;-61
2022/08/18 03:31:47;;;;;;;31.15;23.70;;;19.80;99.90;;;;;;5031264;28;20033;-60
2022/08/18 03:34:14;;;;;;;33.20;23.98;;;19.80;99.90;;;;;;5031795;28;20159;-60
2022/08/18 03:36:40;;;;;;;40.65;25.48;;;19.80;99.90;;;;;;5030358;28;20120;-60
2022/08/18 03:39:11;;;;;;;35.70;25.70;;;19.70;99.90;;;;;;5029786;28;20033;-60
2022/08/18 03:41:40;;;;;;;32.13;26.13;;;19.70;99.90;;;;;;5029835;28;20087;-60
2022/08/18 03:44:06;;;;;;;38.90;26.25;;;19.60;99.90;;;;;;5029947;28;20498;-60
2022/08/18 03:46:32;;;;;;;31.52;26.45;;;19.50;99.90;;;;;;5029862;28;20038;-60
2022/08/18 03:48:59;;;;;;;31.70;25.95;;;19.60;99.90;;;;;;5029616;28;20108;-60
2022/08/18 03:51:27;;;;;;;33.45;26.95;;;19.50;99.90;;;;;;5029982;28;20037;-60
2022/08/18 03:53:57;;;;;;;34.83;27.63;;;19.50;99.90;;;;;;5031463;28;20029;-59
2022/08/18 03:56:26;;;;;;;33.58;28.17;;;19.60;99.90;;;;;;5030861;28;20042;-60
2022/08/18 03:58:57;;;;;;;35.70;27.70;;;19.50;99.90;;;;;;5031410;28;20033;-60
2022/08/18 04:01:27;;;;;;;31.20;26.35;;;19.50;99.90;;;;;;5031692;28;20029;-60
2022/08/18 04:03:58;;;;;;;31.48;25.67;;;19.50;99.90;;;;;;5031201;28;20071;-60
2022/08/18 04:06:32;;;;;;;34.25;26.38;;;19.40;99.90;;;;;;5031458;28;20061;-60
2022/08/18 04:09:00;;;;;;;36.35;27.73;;;19.40;99.90;;;;;;5031399;28;20049;-60
2022/08/18 04:11:27;;;;;;;34.50;27.73;;;19.40;99.90;;;;;;5031248;28;20036;-60
2022/08/18 04:13:56;;;;;;;35.97;27.65;;;19.40;99.90;;;;;;5031190;28;20037;-61
2022/08/18 04:16:24;;;;;;;33.30;26.83;;;19.40;99.90;;;;;;5031020;28;20048;-60
2022/08/18 04:18:50;;;;;;;37.90;28.77;;;19.40;99.90;;;;;;5030971;28;20025;-60
2022/08/18 04:21:16;;;;;;;31.17;26.67;;;19.50;99.90;;;;;;5030740;28;20503;-60
2022/08/18 04:23:42;;;;;;;37.95;27.73;;;19.50;99.90;;;;;;5031130;28;20040;-60
2022/08/18 04:26:10;;;;;;;46.88;28.50;;;19.50;99.90;;;;;;5031103;28;20073;-61
2022/08/18 04:28:36;;;;;;;38.38;26.88;;;19.50;99.90;;;;;;5030684;28;20022;-59
2022/08/18 04:31:10;;;;;;;40.40;28.25;;;19.50;99.90;;;;;;5031036;28;20037;-58
2022/08/18 04:33:36;;;;;;;37.28;26.55;;;19.50;99.90;;;;;;5030695;28;20026;-59
2022/08/18 04:36:14;;;;;;;30.92;26.58;;;19.60;99.90;;;;;;5030652;28;20041;-59
2022/08/18 04:38:41;;;;;;;34.97;27.98;;;19.60;99.90;;;;;;5030529;28;20035;-59
2022/08/18 04:41:08;;;;;;;40.38;27.50;;;19.60;99.90;;;;;;5030755;28;20052;-59
2022/08/18 04:43:34;;;;;;;35.88;27.63;;;19.60;99.90;;;;;;5030612;28;20035;-59
2022/08/18 04:46:03;;;;;;;34.42;26.95;;;19.80;99.90;;;;;;5031009;28;20601;-59
2022/08/18 04:48:33;;;;;;;31.95;26.92;;;20.00;99.90;;;;;;5030357;28;20031;-59
2022/08/18 04:51:07;;;;;;;33.83;27.48;;;20.10;99.90;;;;;;5030571;28;20492;-59
2022/08/18 04:53:46;;;;;;;33.15;26.90;;;20.10;99.90;;;;;;5030484;28;20064;-59
2022/08/18 04:56:25;;;;;;;29.83;25.83;;;20.30;99.90;;;;;;5030280;28;20053;-59
2022/08/18 04:59:05;;;;;;;32.72;26.80;;;20.30;99.90;;;;;;5030047;28;20452;-59
2022/08/18 05:01:36;;;;;;;35.70;26.40;;;20.30;99.90;;;;;;5030234;28;20112;-59
2022/08/18 05:04:02;;;;;;;29.42;26.23;;;20.30;99.90;;;;;;5030279;28;20058;-59
2022/08/18 05:06:28;;;;;;;31.30;26.98;;;20.30;99.90;;;;;;5029974;28;20061;-59
2022/08/18 05:08:57;;;;;;;35.38;27.58;;;20.30;99.90;;;;;;5029913;28;20026;-58
2022/08/18 05:11:27;;;;;;;30.77;27.17;;;20.40;99.90;;;;;;5029942;28;20045;-59
2022/08/18 05:13:55;;;;;;;31.10;26.90;;;20.50;99.90;;;;;;5030036;28;20564;-59
2022/08/18 05:16:21;;;;;;;29.75;26.52;;;20.50;99.90;;;;;;5029636;28;20052;-59
2022/08/18 05:18:47;;;;;;;32.80;27.02;;;20.60;99.90;;;;;;5029832;28;20021;-59
2022/08/18 05:21:14;;;;;;;37.63;28.15;;;20.70;99.90;;;;;;5029828;28;20123;-59
2022/08/18 05:23:41;;;;;;;34.30;27.92;;;20.70;99.90;;;;;;5029629;28;20021;-59
2022/08/18 05:26:07;;;;;;;;;;;20.80;99.90;;;;;;5030537;28;20025;-59
2022/08/18 05:28:36;;;;;;;36.63;26.10;;;20.80;99.90;;;;;;5029511;28;20260;-58
2022/08/18 05:31:07;;;;;;;30.85;24.50;;;20.90;99.90;;;;;;5030054;28;20041;-59
2022/08/18 05:33:35;;;;;;;30.33;25.15;;;20.90;99.90;;;;;;5029594;28;20067;-59
2022/08/18 05:36:02;;;;;;;;;;;21.00;99.90;;;;;;5029859;28;20041;-59
2022/08/18 05:38:54;;;;;;;32.55;26.58;;;21.10;99.90;;;;;;5029325;28;19916;-59
2022/08/18 05:41:32;;;;;;;33.67;25.35;;;21.10;99.90;;;;;;5029544;28;20034;-59
2022/08/18 05:43:59;;;;;;;35.10;25.88;;;21.20;99.90;;;;;;5029724;28;20036;-60
2022/08/18 05:46:37;;;;;;;33.03;25.45;;;21.20;99.90;;;;;;5029154;28;20022;-60
2022/08/18 05:49:03;;;;;;;;;;;21.30;99.90;;;;;;5029720;28;20033;-59
2022/08/18 05:51:35;;;;;;;28.50;24.48;;;21.40;99.90;;;;;;5029330;28;19927;-60
2022/08/18 05:56:50;;;;;;;29.05;23.90;;;21.50;99.90;;;;;;5029167;28;20052;-60
2022/08/18 05:59:23;;;;;;;28.77;25.00;;;21.60;99.90;;;;;;5029175;28;20080;-60
2022/08/18 06:02:21;;;;;;;33.70;24.35;;;21.60;99.90;;;;;;5029358;28;20029;-60
2022/08/18 06:04:54;;;;;;;30.83;23.98;;;21.80;99.90;;;;;;5029541;28;20026;-59
2022/08/18 06:07:45;;;;;;;27.63;23.23;;;21.90;99.90;;;;;;5029191;28;20025;-60
2022/08/18 06:10:13;;;;;;;38.28;24.65;;;21.90;99.90;;;;;;5028990;28;20021;-60
2022/08/18 06:12:40;;;;;;;31.67;23.08;;;22.00;99.90;;;;;;5027055;28;20128;-59
2022/08/18 06:15:15;;;;;;;28.42;23.17;;;22.00;99.90;;;;;;5029100;28;20037;-60
2022/08/18 06:17:40;;;;;;;29.13;22.52;;;22.10;99.90;;;;;;5027743;28;20221;-60
2022/08/18 06:20:16;;;;;;;29.90;22.77;;;22.20;99.90;;;;;;5028575;28;20021;-60
2022/08/18 06:22:47;;;;;;;49.65;24.52;;;22.20;99.90;;;;;;5028793;28;20119;-59
2022/08/18 06:25:25;;;;;;;30.27;20.88;;;22.30;99.90;;;;;;5028948;28;20025;-59
2022/08/18 06:27:57;;;;;;;26.80;20.98;;;22.30;99.90;;;;;;5031238;28;20090;-59
2022/08/18 06:30:41;;;;;;;27.38;22.08;;;22.40;99.90;;;;;;5032983;28;20026;-60
2022/08/18 06:33:21;;;;;;;26.33;21.48;;;22.50;99.90;;;;;;5031548;28;20029;-60
2022/08/18 06:35:53;;;;;;;24.98;19.60;;;22.60;99.90;;;;;;5038308;28;20067;-60
2022/08/18 06:38:55;;;;;;;24.20;19.40;;;22.70;99.90;;;;;;5046577;28;20574;-59
2022/08/18 06:41:44;;;;;;;27.77;19.20;;;22.80;99.90;;;;;;5042583;28;20142;-58
2022/08/18 06:44:11;;;;;;;22.13;18.65;;;22.80;99.90;;;;;;5041415;28;20431;-59
2022/08/18 06:46:54;;;;;;;22.95;18.23;;;22.90;99.90;;;;;;5041032;28;20052;-59
2022/08/18 06:49:26;;;;;;;25.77;20.13;;;23.00;99.90;;;;;;5042723;28;20028;-60
2022/08/18 06:51:51;;;;;;;26.83;19.63;;;23.10;99.90;;;;;;5041300;28;20022;-59
2022/08/18 06:54:21;;;;;;;26.23;19.02;;;23.10;99.90;;;;;;5040643;28;20032;-59
2022/08/18 06:56:52;;;;;;;26.38;19.30;;;23.30;99.90;;;;;;5038959;28;20054;-59
2022/08/18 06:59:22;;;;;;;24.85;18.52;;;23.40;99.90;;;;;;5038939;28;20384;-60
2022/08/18 07:01:56;;;;;;;22.40;17.55;;;23.50;99.90;;;;;;5041324;28;20029;-60
2022/08/18 07:04:42;;;;;;;22.48;17.95;;;23.60;99.90;;;;;;5042603;28;20057;-60
2022/08/18 07:07:17;;;;;;;20.27;16.85;;;23.70;99.90;;;;;;5040290;28;20028;-59
2022/08/18 07:09:43;;;;;;;22.63;16.65;;;23.80;99.90;;;;;;5041452;28;20051;-59
2022/08/18 07:12:17;;;;;;;25.17;16.83;;;23.90;99.90;;;;;;5032720;28;20036;-60
2022/08/18 07:14:53;;;;;;;20.00;16.05;;;24.20;99.90;;;;;;5032319;28;20030;-59
2022/08/18 07:17:28;;;;;;;21.85;14.95;;;24.10;99.90;;;;;;5041016;28;20431;-59
2022/08/18 07:20:06;;;;;;;22.05;14.85;;;24.30;99.90;;;;;;5048578;28;20086;-59
2022/08/18 07:22:52;;;;;;;19.85;14.40;;;24.40;99.90;;;;;;5051789;28;20137;-61
2022/08/18 07:25:24;;;;;;;17.50;14.38;;;24.60;99.90;;;;;;5052158;28;20457;-59
2022/08/18 07:27:50;;;;;;;21.08;14.52;;;24.70;99.90;;;;;;5050633;28;20036;-58
2022/08/18 07:30:18;;;;;;;19.40;14.30;;;24.60;99.90;;;;;;5044301;28;20030;-59
2022/08/18 07:32:49;;;;;;;24.58;15.07;;;24.60;99.90;;;;;;5031769;28;20606;-58
2022/08/18 07:35:29;;;;;;;19.27;16.05;;;24.60;99.90;;;;;;5032022;28;20025;-59
2022/08/18 07:38:05;;;;;;;20.70;13.93;;;24.90;99.90;;;;;;5031153;28;20033;-58
2022/08/18 07:40:40;;;;;;;18.23;13.23;;;25.30;99.90;;;;;;5049387;28;20035;-59
2022/08/18 07:43:42;;;;;;;19.50;13.45;;;25.30;99.90;;;;;;5051698;28;20025;-58
2022/08/18 07:46:18;;;;;;;20.67;13.57;;;25.50;99.90;;;;;;5038139;28;20084;-59
2022/08/18 07:48:43;;;;;;;17.10;13.23;;;25.60;99.90;;;;;;5051378;28;20060;-59
2022/08/18 07:51:29;;;;;;;22.17;14.07;;;26.00;99.90;;;;;;5051535;28;20468;-59
2022/08/18 07:54:07;;;;;;;15.23;11.77;;;26.30;99.90;;;;;;5051347;28;20452;-59
2022/08/18 07:57:00;;;;;;;25.35;14.02;;;26.30;99.90;;;;;;5051275;28;20075;-58
2022/08/18 07:59:38;;;;;;;16.98;12.32;;;26.10;99.90;;;;;;5051359;28;20036;-60
2022/08/18 08:02:35;;;;;;;22.02;13.63;;;26.30;99.90;;;;;;5050792;28;20024;-60
2022/08/18 08:05:09;;;;;;;17.50;11.27;;;26.30;99.90;;;;;;5049525;28;20017;-59
2022/08/18 08:07:50;;;;;;;18.85;12.40;;;26.30;99.90;;;;;;5049334;28;20045;-59
2022/08/18 08:10:39;;;;;;;16.08;12.43;;;26.60;99.90;;;;;;5049331;28;20031;-59
2022/08/18 08:13:39;;;;;;;20.35;11.85;;;27.10;99.90;;;;;;5049402;28;20529;-59
2022/08/18 08:16:40;;;;;;;16.00;12.30;;;26.90;99.90;;;;;;5049187;28;20041;-60
2022/08/18 08:19:34;;;;;;;19.40;11.93;;;26.80;99.90;;;;;;5050957;28;20492;-59
2022/08/18 08:22:19;;;;;;;17.45;11.77;;;26.90;99.90;;;;;;5051223;28;20033;-60
2022/08/18 08:24:45;;;;;;;13.05;11.35;;;27.20;99.90;;;;;;5050459;28;20040;-59
2022/08/18 08:27:27;;;;;;;20.85;11.63;;;27.50;99.90;;;;;;5050885;28;20017;-59
2022/08/18 08:30:05;;;;;;;15.35;10.57;;;28.00;99.90;;;;;;5050964;28;20115;-59
2022/08/18 08:32:40;;;;;;;17.80;11.13;;;28.20;99.90;;;;;;5050584;28;20388;-59
2022/08/18 08:35:12;;;;;;;14.68;10.98;;;28.20;99.90;;;;;;5049387;28;20037;-60
2022/08/18 08:37:49;;;;;;;14.95;10.90;;;28.30;99.90;;;;;;5050602;28;20394;-59
2022/08/18 08:40:36;;;;;;;15.85;11.02;;;28.40;99.90;;;;;;5032867;28;20067;-59
2022/08/18 08:43:09;;;;;;;16.23;10.63;;;28.30;99.90;;;;;;5050423;28;20045;-59
2022/08/18 08:45:44;;;;;;;15.18;10.77;;;28.60;99.90;;;;;;5050447;28;20385;-58
2022/08/18 08:48:23;;;;;;;14.43;10.52;;;28.70;99.90;;;;;;5048804;28;20424;-59
2022/08/18 08:51:01;;;;;;;14.45;11.30;;;28.60;99.90;;;;;;5049656;28;20021;-60
2022/08/18 08:53:38;;;;;;;20.77;12.13;;;28.70;99.90;;;;;;5050270;28;20032;-60
2022/08/18 08:56:13;;;;;;;16.77;11.55;;;28.50;99.90;;;;;;5039085;28;20038;-59
2022/08/18 08:58:48;;;;;;;15.13;12.05;;;28.50;99.90;;;;;;5038669;28;20029;-59
2022/08/18 09:01:32;;;;;;;15.98;10.10;;;28.70;99.90;;;;;;5039212;28;20021;-59
2022/08/18 09:04:38;;;;;;;13.70;10.43;;;28.80;99.90;;;;;;5039819;28;20025;-58
2022/08/18 09:07:22;;;;;;;15.77;11.15;;;29.00;99.90;;;;;;4999262;28;20488;-58
2022/08/18 09:09:53;;;;;;;16.67;10.07;;;29.40;99.90;;;;;;5037386;28;20366;-59
2022/08/18 09:12:40;;;;;;;18.73;10.07;;;29.20;99.90;;;;;;5039114;28;20372;-58
2022/08/18 09:15:32;;;;;;;15.98;10.02;;;29.60;99.90;;;;;;5040486;28;20029;-59
2022/08/18 09:18:37;;;;;;;12.20;9.18;;;29.90;99.00;;;;;;5039967;28;20163;-58
2022/08/18 09:21:40;;;;;;;16.38;9.45;;;30.00;96.90;;;;;;5029817;28;20029;-58
2022/08/18 09:24:30;;;;;;;15.20;10.07;;;30.30;95.90;;;;;;5057372;23;20093;-89
2022/08/18 09:27:02;;;;;;;18.77;11.43;;;30.30;94.20;;;;;;4997026;28;20030;-91
2022/08/18 09:29:38;;;;;;;17.40;10.00;;;29.70;95.40;;;;;;4998140;28;20026;-93
2022/08/18 09:32:19;;;;;;;14.75;10.60;;;29.70;96.80;;;;;;4997982;28;20393;-89
2022/08/18 09:34:52;;;;;;;17.80;10.45;;;30.10;94.50;;;;;;5006848;28;20033;-91
2022/08/18 09:37:24;;;;;;;18.35;10.93;;;30.00;96.00;;;;;;4994983;28;20041;-91
2022/08/18 09:43:35;;;;;;;16.20;10.07;;;30.50;96.20;;;;;;5009538;28;20045;-88
2022/08/18 09:46:04;;;;;;;15.82;10.60;;;30.60;93.80;;;;;;5003877;28;20053;-87
2022/08/18 09:48:38;;;;;;;13.80;10.52;;;30.50;94.80;;;;;;5006399;28;20021;-89
2022/08/18 09:51:17;;;;;;;17.10;9.93;;;30.50;94.90;;;;;;4988653;28;20038;-92
2022/08/18 09:53:52;;;;;;;17.27;9.43;;;30.70;94.30;;;;;;4991187;28;20034;-90
2022/08/18 09:56:48;;;;;;;13.95;9.38;;;30.80;90.90;;;;;;4987007;28;20052;-89
2022/08/18 09:59:35;;;;;;;12.90;9.38;;;30.90;92.30;;;;;;4998488;28;20049;-89
2022/08/18 10:02:36;;;;;;;16.92;9.30;;;30.90;92.90;;;;;;4976490;28;20040;-88
2022/08/18 10:05:18;;;;;;;15.88;9.35;;;31.20;92.50;;;;;;4974266;28;20077;-89
2022/08/18 10:08:02;;;;;;;18.40;9.32;;;31.10;90.60;;;;;;4992432;28;20084;-88
2022/08/18 10:10:36;;;;;;;14.82;8.77;;;31.40;90.60;;;;;;4995428;28;20049;-90
2022/08/18 10:13:05;;;;;;;12.80;9.48;;;31.90;90.20;;;;;;5010324;28;20117;-89
2022/08/18 10:15:40;;;;;;;14.85;8.85;;;31.70;88.70;;;;;;4991374;28;20034;-87
2022/08/18 10:18:32;;;;;;;13.43;9.25;;;31.80;90.30;;;;;;4998593;28;20549;-88
2022/08/18 10:21:20;;;;;;;13.20;9.30;;;31.60;91.10;;;;;;5002004;28;20065;-88
2022/08/18 10:23:59;;;;;;;11.30;8.75;;;31.70;88.10;;;;;;4998356;28;20057;-94
2022/08/18 10:26:36;;;;;;;19.40;15.70;;;32.00;87.90;;;;;;4997480;28;20045;-88
2022/08/18 10:29:10;;;;;;;27.42;11.20;;;32.30;84.40;;;;;;5006722;28;20080;-88
2022/08/18 10:31:55;;;;;;;14.75;9.45;;;32.50;83.70;;;;;;5060595;22;20396;-58
2022/08/18 10:34:51;;;;;;;14.05;8.00;;;32.80;81.70;;;;;;5081355;28;20043;-58
2022/08/18 10:37:37;;;;;;;13.77;8.15;;;32.90;79.50;;;;;;5079429;28;20039;-58
2022/08/18 10:40:11;;;;;;;14.70;8.65;;;33.10;77.80;;;;;;5068689;28;20074;-58
2022/08/18 10:42:47;;;;;;;10.82;8.32;;;33.10;77.70;;;;;;5076384;28;20024;-58
2022/08/18 10:45:29;;;;;;;13.23;8.85;;;33.40;77.10;;;;;;5086606;28;20024;-58
2022/08/18 10:48:04;;;;;;;13.25;8.70;;;33.40;79.60;;;;;;5087274;28;20020;-58
2022/08/18 10:50:37;;;;;;;17.15;9.07;;;33.60;76.40;;;;;;5088589;28;20031;-58
2022/08/18 10:53:11;;;;;;;16.55;9.18;;;33.50;76.40;;;;;;5087454;28;20531;-58
2022/08/18 10:55:49;;;;;;;15.25;9.07;;;33.60;76.10;;;;;;5088023;28;20115;-58
2022/08/18 10:58:51;;;;;;;15.15;8.90;;;33.80;73.50;;;;;;5087754;28;20048;-59
2022/08/18 11:01:28;;;;;;;13.98;8.38;;;34.00;75.00;;;;;;5069268;28;20035;-59
2022/08/18 11:04:06;;;;;;;18.85;9.18;;;34.20;71.70;;;;;;5079241;28;20020;-58
2022/08/18 11:06:46;;;;;;;11.73;8.30;;;34.10;72.20;;;;;;5077953;28;20016;-57
2022/08/18 11:09:26;;;;;;;12.85;7.80;;;34.10;73.90;;;;;;5087053;28;20578;-58
2022/08/18 11:11:54;;;;;;;13.45;8.68;;;34.00;70.80;;;;;;5080396;28;20123;-57
2022/08/18 11:14:43;;;;;;;17.67;9.27;;;33.70;72.60;;;;;;5076792;28;20032;-57
2022/08/18 11:17:30;;;;;;;14.02;8.93;;;34.40;72.40;;;;;;5063437;28;20037;-58
2022/08/18 11:19:59;;;;;;;16.80;9.30;;;34.50;70.90;;;;;;5082545;28;20036;-58
2022/08/18 11:22:31;;;;;;;15.52;9.75;;;34.30;72.00;;;;;;5082370;28;20032;-57
2022/08/18 11:24:57;;;;;;;16.05;9.27;;;34.20;75.60;;;;;;5081074;28;20020;-58
2022/08/18 11:27:28;;;;;;;13.82;9.30;;;34.50;73.10;;;;;;5084935;28;20063;-57
2022/08/18 11:29:58;;;;;;;19.77;9.13;;;34.70;70.90;;;;;;5080962;28;20109;-57
2022/08/18 11:32:27;;;;;;;16.65;8.82;;;34.60;69.60;;;;;;5082616;28;20056;-58
2022/08/18 11:34:58;;;;;;;12.82;8.75;;;34.50;71.80;;;;;;5081415;28;20032;-57
2022/08/18 11:37:37;;;;;;;12.25;9.25;;;34.10;71.10;;;;;;5082526;28;20391;-57
2022/08/18 11:40:08;;;;;;;10.95;8.27;;;34.20;70.60;;;;;;5082954;28;20498;-57
2022/08/18 11:42:38;;;;;;;12.98;9.05;;;34.80;68.30;;;;;;5082723;28;20056;-57
2022/08/18 11:45:18;;;;;;;13.07;9.70;;;34.90;69.90;;;;;;5082483;28;20426;-58
2022/08/18 11:48:20;;;;;;;16.85;9.27;;;35.00;68.10;;;;;;5086423;28;20024;-58
2022/08/18 11:50:54;;;;;;;13.50;9.80;;;35.40;66.10;;;;;;5083100;28;20031;-58
2022/08/18 11:53:41;;;;;;;12.73;8.07;;;35.40;63.20;;;;;;5091907;28;20016;-58
2022/08/18 11:56:10;;;;;;;;;;;35.50;63.60;;;;;;5076840;28;20125;-58
2022/08/18 11:59:05;;;;;;;15.10;8.52;;;35.60;62.50;;;;;;5081944;28;19923;-58
2022/08/18 12:01:43;;;;;;;16.30;8.00;;;35.30;64.80;;;;;;5080269;28;20028;-58
2022/08/18 12:04:36;;;;;;;14.43;8.48;;;35.30;64.90;;;;;;5081927;28;20466;-58
2022/08/18 12:07:09;;;;;;;14.07;8.65;;;35.40;63.90;;;;;;5073814;28;20059;-58
2022/08/18 12:10:05;;;;;;;14.45;8.57;;;35.40;61.00;;;;;;5070977;28;20135;-58
2022/08/18 12:12:31;;;;;;;14.60;9.23;;;35.70;59.60;;;;;;5071214;28;20055;-59
2022/08/18 12:15:02;;;;;;;16.13;9.50;;;35.30;61.20;;;;;;5071249;28;20031;-58
2022/08/18 12:17:30;;;;;;;22.25;9.45;;;35.10;61.50;;;;;;5071273;28;20041;-58
2022/08/18 12:19:57;;;;;;;13.23;9.43;;;35.20;59.20;;;;;;5078300;28;20112;-58
2022/08/18 12:22:30;;;;;;;12.70;8.25;;;35.30;60.30;;;;;;5084377;28;20136;-58
2022/08/18 12:24:55;;;;;;;10.10;8.38;;;35.60;62.00;;;;;;5088283;28;20557;-58
2022/08/18 12:27:23;;;;;;;12.00;8.60;;;36.30;59.40;;;;;;5088313;28;20118;-58
2022/08/18 12:29:51;;;;;;;15.35;8.95;;;36.50;58.20;;;;;;5079352;28;20028;-59
2022/08/18 12:32:18;;;;;;;13.20;8.60;;;36.50;57.80;;;;;;5075891;28;20163;-58
2022/08/18 12:34:45;;;;;;;20.23;9.30;;;35.90;58.70;;;;;;5070257;28;20025;-59
2022/08/18 12:37:15;;;;;;;11.82;7.82;;;36.30;58.50;;;;;;5078110;28;20041;-59
2022/08/18 12:39:41;;;;;;;24.60;10.50;;;36.60;56.80;;;;;;5070204;28;20434;-58
2022/08/18 12:42:07;;;;;;;10.38;7.28;;;36.40;58.00;;;;;;5070009;28;20476;-58
2022/08/18 12:44:33;;;;;;;12.95;7.75;;;37.00;56.30;;;;;;5070156;28;20440;-58
2022/08/18 12:47:01;;;;;;;9.03;7.77;;;36.60;56.00;;;;;;5070050;28;20123;-58
2022/08/18 12:49:27;;;;;;;11.50;7.88;;;36.20;56.60;;;;;;5070331;28;20107;-59
2022/08/18 12:51:54;;;;;;;12.67;7.70;;;36.40;57.50;;;;;;5059168;28;20101;-58
2022/08/18 12:54:19;;;;;;;;;;;36.80;56.70;;;;;;5049495;28;20037;-58
2022/08/18 12:56:50;;;;;;;10.98;7.32;;;36.90;57.30;;;;;;5050090;28;19956;-59
2022/08/18 12:59:16;;;;;;;15.82;7.63;;;36.90;55.40;;;;;;5050287;28;20031;-58
2022/08/18 13:01:42;;;;;;;13.07;7.87;;;37.00;55.10;;;;;;5049394;28;20040;-58
2022/08/18 13:04:08;;;;;;;10.82;7.25;;;36.90;55.30;;;;;;5050105;28;20025;-59
2022/08/18 13:06:36;;;;;;;10.60;7.93;;;37.00;53.90;;;;;;5056051;28;20031;-58
2022/08/18 13:09:03;;;;;;;9.88;8.10;;;37.00;54.40;;;;;;5068964;28;20032;-58
2022/08/18 13:11:29;;;;;;;14.18;7.53;;;36.20;56.90;;;;;;5051031;28;20060;-58
2022/08/18 13:13:55;;;;;;;13.80;7.87;;;36.00;55.80;;;;;;5069788;28;20032;-58
2022/08/18 13:16:22;;;;;;;14.05;7.15;;;36.70;54.80;;;;;;5069346;28;20453;-57
2022/08/18 13:18:47;;;;;;;11.80;7.72;;;36.80;54.50;;;;;;5069549;28;20031;-58